sensor_id;sensor_type;location;lat;lon;timestamp;temperature;humidity
27200;DHT22;14714;48.106;11.546;2023-02-27T00:01:33;-1.10;99.90
27200;DHT22;14714;48.106;11.546;2023-02-27T00:04:00;-1.10;99.90
27200;DHT22;14714;48.106;11.546;2023-02-27T00:06:27;-1.10;99.90
27200;DHT22;14714;48.106;11.546;2023-02-27T00:08:54;-1.10;99.90
27200;DHT22;14714;48.106;11.546;2023-02-27T00:11:21;-1.20;99.90
27200;DHT22;14714;48.106;11.546;2023-02-27T00:13:47;-1.20;99.90
27200;DHT22;14714;48.106;11.546;2023-02-27T00:16:14;-1.20;99.90
27200;DHT22;14714;48.106;11.546;2023-02-27T00:18:41;-1.20;99.90
27200;DHT22;14714;48.106;11.546;2023-02-27T00:21:08;-1.20;99.90
27200;DHT22;14714;48.106;11.546;2023-02-27T00:23:34;-1.30;99.90
27200;DHT22;14714;48.106;11.546;2023-02-27T00:26:01;-1.30;99.90
27200;DHT22;14714;48.106;11.546;2023-02-27T00:28:27;-1.30;99.90
27200;DHT22;14714;48.106;11.546;2023-02-27T00:30:54;-1.40;99.90
27200;DHT22;14714;48.106;11.546;2023-02-27T00:33:21;-1.40;99.90
27200;DHT22;14714;48.106;11.546;2023-02-27T00:35:54;-1.40;99.90
27200;DHT22;14714;48.106;11.546;2023-02-27T00:38:21;-1.40;99.90
27200;DHT22;14714;48.106;11.546;2023-02-27T00:40:48;-1.40;99.90
27200;DHT22;14714;48.106;11.546;2023-02-27T00:43:14;-1.40;99.90
27200;DHT22;14714;48.106;11.546;2023-02-27T00:45:41;-1.40;99.90
27200;DHT22;14714;48.106;11.546;2023-02-27T00:48:08;-1.40;99.90
27200;DHT22;14714;48.106;11.546;2023-02-27T00:50:34;-1.30;99.90
27200;DHT22;14714;48.106;11.546;2023-02-27T00:53:01;-1.30;99.90
27200;DHT22;14714;48.106;11.546;2023-02-27T00:55:28;-1.30;99.90
27200;DHT22;14714;48.106;11.546;2023-02-27T00:57:54;-1.30;99.90
27200;DHT22;14714;48.106;11.546;2023-02-27T01:00:21;-1.30;99.90
27200;DHT22;14714;48.106;11.546;2023-02-27T01:02:48;-1.30;99.90
27200;DHT22;14714;48.106;11.546;2023-02-27T01:05:15;-1.30;99.90
27200;DHT22;14714;48.106;11.546;2023-02-27T01:07:41;-1.30;99.90
27200;DHT22;14714;48.106;11.546;2023-02-27T01:10:08;-1.30;99.90
27200;DHT22;14714;48.106;11.546;2023-02-27T01:12:35;-1.30;99.90
27200;DHT22;14714;48.106;11.546;2023-02-27T01:15:03;-1.40;99.90
27200;DHT22;14714;48.106;11.546;2023-02-27T01:17:30;-1.40;99.90
27200;DHT22;14714;48.106;11.546;2023-02-27T01:19:56;-1.40;99.90
27200;DHT22;14714;48.106;11.546;2023-02-27T01:22:23;-1.40;99.90
27200;DHT22;14714;48.106;11.546;2023-02-27T01:24:50;-1.40;99.90
27200;DHT22;14714;48.106;11.546;2023-02-27T01:27:17;-1.50;99.90
27200;DHT22;14714;48.106;11.546;2023-02-27T01:29:43;-1.50;99.90
27200;DHT22;14714;48.106;11.546;2023-02-27T01:32:10;-1.50;99.90
27200;DHT22;14714;48.106;11.546;2023-02-27T01:34:37;-1.50;99.90
27200;DHT22;14714;48.106;11.546;2023-02-27T01:37:03;-1.60;99.90
27200;DHT22;14714;48.106;11.546;2023-02-27T01:39:30;-1.60;99.90
27200;DHT22;14714;48.106;11.546;2023-02-27T01:41:58;-1.60;99.90
27200;DHT22;14714;48.106;11.546;2023-02-27T01:44:26;-1.60;99.90
27200;DHT22;14714;48.106;11.546;2023-02-27T01:46:53;-1.60;99.90
27200;DHT22;14714;48.106;11.546;2023-02-27T01:49:24;-1.60;99.90
27200;DHT22;14714;48.106;11.546;2023-02-27T01:51:54;-1.60;99.90
27200;DHT22;14714;48.106;11.546;2023-02-27T01:54:23;-1.50;99.90
27200;DHT22;14714;48.106;11.546;2023-02-27T01:56:50;-1.50;99.90
27200;DHT22;14714;48.106;11.546;2023-02-27T01:59:17;-1.50;99.90
27200;DHT22;14714;48.106;11.546;2023-02-27T02:01:44;-1.50;99.90
27200;DHT22;14714;48.106;11.546;2023-02-27T02:04:31;-1.50;99.90
27200;DHT22;14714;48.106;11.546;2023-02-27T02:07:00;-1.60;99.90
27200;DHT22;14714;48.106;11.546;2023-02-27T02:09:27;-1.60;99.90
27200;DHT22;14714;48.106;11.546;2023-02-27T02:11:55;-1.60;99.90
27200;DHT22;14714;48.106;11.546;2023-02-27T02:14:22;-1.60;99.90
27200;DHT22;14714;48.106;11.546;2023-02-27T02:17:09;-1.60;99.90
27200;DHT22;14714;48.106;11.546;2023-02-27T02:19:52;-1.60;99.90
27200;DHT22;14714;48.106;11.546;2023-02-27T02:30:39;-1.60;99.90
27200;DHT22;14714;48.106;11.546;2023-02-27T02:43:18;-1.50;99.90
27200;DHT22;14714;48.106;11.546;2023-02-27T02:49:09;-1.50;99.90
27200;DHT22;14714;48.106;11.546;2023-02-27T03:02:10;-1.60;99.90
27200;DHT22;14714;48.106;11.546;2023-02-27T03:09:47;-1.60;99.90
27200;DHT22;14714;48.106;11.546;2023-02-27T03:12:16;-1.60;99.90
27200;DHT22;14714;48.106;11.546;2023-02-27T03:15:05;-1.60;99.90
27200;DHT22;14714;48.106;11.546;2023-02-27T03:20:34;-1.60;99.90
27200;DHT22;14714;48.106;11.546;2023-02-27T03:23:03;-1.60;99.90
27200;DHT22;14714;48.106;11.546;2023-02-27T03:25:32;-1.70;99.90
27200;DHT22;14714;48.106;11.546;2023-02-27T03:28:00;-1.70;99.90
27200;DHT22;14714;48.106;11.546;2023-02-27T03:30:42;-1.60;99.90
27200;DHT22;14714;48.106;11.546;2023-02-27T03:33:12;-1.60;99.90
27200;DHT22;14714;48.106;11.546;2023-02-27T03:35:42;-1.60;99.90
27200;DHT22;14714;48.106;11.546;2023-02-27T03:38:59;-1.50;99.90
27200;DHT22;14714;48.106;11.546;2023-02-27T03:46:20;-1.50;99.90
27200;DHT22;14714;48.106;11.546;2023-02-27T03:48:47;-1.40;99.90
27200;DHT22;14714;48.106;11.546;2023-02-27T03:51:16;-1.40;99.90
27200;DHT22;14714;48.106;11.546;2023-02-27T03:53:56;-1.40;99.90
27200;DHT22;14714;48.106;11.546;2023-02-27T03:56:30;-1.40;99.90
27200;DHT22;14714;48.106;11.546;2023-02-27T03:58:58;-1.40;99.90
27200;DHT22;14714;48.106;11.546;2023-02-27T04:01:24;-1.40;99.90
27200;DHT22;14714;48.106;11.546;2023-02-27T04:04:02;-1.40;99.90
27200;DHT22;14714;48.106;11.546;2023-02-27T04:06:31;-1.40;99.90
27200;DHT22;14714;48.106;11.546;2023-02-27T04:12:15;-1.50;99.90
27200;DHT22;14714;48.106;11.546;2023-02-27T04:17:20;-1.50;99.90
27200;DHT22;14714;48.106;11.546;2023-02-27T04:19:58;-1.40;99.90
27200;DHT22;14714;48.106;11.546;2023-02-27T04:27:39;-1.50;99.90
27200;DHT22;14714;48.106;11.546;2023-02-27T04:35:22;-1.50;99.90
27200;DHT22;14714;48.106;11.546;2023-02-27T04:40:43;-1.40;99.90
27200;DHT22;14714;48.106;11.546;2023-02-27T04:43:13;-1.40;99.90
27200;DHT22;14714;48.106;11.546;2023-02-27T04:45:41;-1.40;99.90
27200;DHT22;14714;48.106;11.546;2023-02-27T04:48:24;-1.40;99.90
27200;DHT22;14714;48.106;11.546;2023-02-27T04:51:14;-1.40;99.90
27200;DHT22;14714;48.106;11.546;2023-02-27T04:56:07;-1.40;99.90
27200;DHT22;14714;48.106;11.546;2023-02-27T04:58:36;-1.40;99.90
27200;DHT22;14714;48.106;11.546;2023-02-27T05:01:08;-1.40;99.90
27200;DHT22;14714;48.106;11.546;2023-02-27T05:03:38;-1.40;99.90
27200;DHT22;14714;48.106;11.546;2023-02-27T05:06:06;-1.40;99.90
27200;DHT22;14714;48.106;11.546;2023-02-27T05:08:35;-1.40;99.90
27200;DHT22;14714;48.106;11.546;2023-02-27T05:11:07;-1.40;99.90
27200;DHT22;14714;48.106;11.546;2023-02-27T05:13:42;-1.50;99.90
27200;DHT22;14714;48.106;11.546;2023-02-27T05:18:52;-1.50;99.90
27200;DHT22;14714;48.106;11.546;2023-02-27T05:21:21;-1.60;99.90
27200;DHT22;14714;48.106;11.546;2023-02-27T05:32:16;-1.60;99.90
27200;DHT22;14714;48.106;11.546;2023-02-27T05:37:17;-1.60;99.90
27200;DHT22;14714;48.106;11.546;2023-02-27T05:39:45;-1.60;99.90
27200;DHT22;14714;48.106;11.546;2023-02-27T05:42:16;-1.60;99.90
27200;DHT22;14714;48.106;11.546;2023-02-27T05:44:46;-1.60;99.90
27200;DHT22;14714;48.106;11.546;2023-02-27T05:47:16;-1.70;99.90
27200;DHT22;14714;48.106;11.546;2023-02-27T05:49:54;-1.70;99.90
27200;DHT22;14714;48.106;11.546;2023-02-27T05:52:22;-1.60;99.90
27200;DHT22;14714;48.106;11.546;2023-02-27T05:57:21;-1.70;99.90
27200;DHT22;14714;48.106;11.546;2023-02-27T05:59:53;-1.70;99.90
27200;DHT22;14714;48.106;11.546;2023-02-27T06:02:21;-1.70;99.90
27200;DHT22;14714;48.106;11.546;2023-02-27T06:04:48;-1.70;99.90
27200;DHT22;14714;48.106;11.546;2023-02-27T06:07:15;-1.70;99.90
27200;DHT22;14714;48.106;11.546;2023-02-27T06:09:42;-1.70;99.90
27200;DHT22;14714;48.106;11.546;2023-02-27T06:12:09;-1.70;99.90
27200;DHT22;14714;48.106;11.546;2023-02-27T06:14:36;-1.70;99.90
27200;DHT22;14714;48.106;11.546;2023-02-27T06:17:03;-1.70;99.90
27200;DHT22;14714;48.106;11.546;2023-02-27T06:19:30;-1.70;99.90
27200;DHT22;14714;48.106;11.546;2023-02-27T06:21:57;-1.60;99.90
27200;DHT22;14714;48.106;11.546;2023-02-27T06:24:23;-1.60;99.90
27200;DHT22;14714;48.106;11.546;2023-02-27T06:26:50;-1.60;99.90
27200;DHT22;14714;48.106;11.546;2023-02-27T06:29:17;-1.50;99.90
27200;DHT22;14714;48.106;11.546;2023-02-27T06:31:44;-1.50;99.90
27200;DHT22;14714;48.106;11.546;2023-02-27T06:34:10;-1.50;99.90
27200;DHT22;14714;48.106;11.546;2023-02-27T06:36:37;-1.40;99.90
27200;DHT22;14714;48.106;11.546;2023-02-27T06:39:04;-1.40;99.90
27200;DHT22;14714;48.106;11.546;2023-02-27T06:41:30;-1.30;99.90
27200;DHT22;14714;48.106;11.546;2023-02-27T06:43:57;-1.30;99.90
27200;DHT22;14714;48.106;11.546;2023-02-27T06:46:24;-1.20;99.90
27200;DHT22;14714;48.106;11.546;2023-02-27T06:48:51;-1.20;99.90
27200;DHT22;14714;48.106;11.546;2023-02-27T06:51:17;-1.20;99.90
27200;DHT22;14714;48.106;11.546;2023-02-27T06:53:44;-1.10;99.90
27200;DHT22;14714;48.106;11.546;2023-02-27T06:56:11;-1.10;99.90
27200;DHT22;14714;48.106;11.546;2023-02-27T06:58:37;-1.00;99.90
27200;DHT22;14714;48.106;11.546;2023-02-27T07:01:04;-0.90;99.90
27200;DHT22;14714;48.106;11.546;2023-02-27T07:03:31;-0.80;99.90
27200;DHT22;14714;48.106;11.546;2023-02-27T07:05:58;-0.80;99.90
27200;DHT22;14714;48.106;11.546;2023-02-27T07:08:24;-0.70;99.90
27200;DHT22;14714;48.106;11.546;2023-02-27T07:10:51;-0.70;99.90
27200;DHT22;14714;48.106;11.546;2023-02-27T07:13:18;-0.60;99.90
27200;DHT22;14714;48.106;11.546;2023-02-27T07:15:45;-0.60;99.90
27200;DHT22;14714;48.106;11.546;2023-02-27T07:18:12;-0.50;99.90
27200;DHT22;14714;48.106;11.546;2023-02-27T07:20:39;-0.50;99.90
27200;DHT22;14714;48.106;11.546;2023-02-27T07:23:05;-0.40;99.90
27200;DHT22;14714;48.106;11.546;2023-02-27T07:25:32;-0.40;99.90
27200;DHT22;14714;48.106;11.546;2023-02-27T07:27:59;-0.30;99.90
27200;DHT22;14714;48.106;11.546;2023-02-27T07:30:25;-0.20;99.90
27200;DHT22;14714;48.106;11.546;2023-02-27T07:32:52;-0.10;99.90
27200;DHT22;14714;48.106;11.546;2023-02-27T07:35:19;-0.10;99.90
27200;DHT22;14714;48.106;11.546;2023-02-27T07:37:46;-0.10;99.90
27200;DHT22;14714;48.106;11.546;2023-02-27T07:40:12;-0.10;99.90
27200;DHT22;14714;48.106;11.546;2023-02-27T07:42:40;-0.20;99.90
27200;DHT22;14714;48.106;11.546;2023-02-27T07:45:07;-0.10;99.90
27200;DHT22;14714;48.106;11.546;2023-02-27T07:47:34;-0.20;99.90
27200;DHT22;14714;48.106;11.546;2023-02-27T07:50:01;-0.20;99.90
27200;DHT22;14714;48.106;11.546;2023-02-27T07:52:29;-0.20;99.90
27200;DHT22;14714;48.106;11.546;2023-02-27T07:54:56;-0.20;99.90
27200;DHT22;14714;48.106;11.546;2023-02-27T07:57:23;-0.10;99.90
27200;DHT22;14714;48.106;11.546;2023-02-27T07:59:50;0.00;99.90
27200;DHT22;14714;48.106;11.546;2023-02-27T08:02:16;0.10;99.90
27200;DHT22;14714;48.106;11.546;2023-02-27T08:04:43;0.10;99.90
27200;DHT22;14714;48.106;11.546;2023-02-27T08:07:10;0.20;99.90
27200;DHT22;14714;48.106;11.546;2023-02-27T08:09:36;0.30;99.90
27200;DHT22;14714;48.106;11.546;2023-02-27T08:12:03;0.40;99.90
27200;DHT22;14714;48.106;11.546;2023-02-27T08:14:30;0.50;99.90
27200;DHT22;14714;48.106;11.546;2023-02-27T08:16:56;0.70;99.90
27200;DHT22;14714;48.106;11.546;2023-02-27T08:19:23;0.70;99.90
27200;DHT22;14714;48.106;11.546;2023-02-27T08:21:50;0.60;99.90
27200;DHT22;14714;48.106;11.546;2023-02-27T08:24:16;0.50;99.90
27200;DHT22;14714;48.106;11.546;2023-02-27T08:26:43;0.50;99.90
27200;DHT22;14714;48.106;11.546;2023-02-27T08:29:10;0.50;99.90
27200;DHT22;14714;48.106;11.546;2023-02-27T08:31:36;0.60;99.90
27200;DHT22;14714;48.106;11.546;2023-02-27T08:34:03;0.70;99.90
27200;DHT22;14714;48.106;11.546;2023-02-27T08:36:36;0.60;99.90
27200;DHT22;14714;48.106;11.546;2023-02-27T08:39:03;0.70;99.90
27200;DHT22;14714;48.106;11.546;2023-02-27T08:41:29;0.70;99.90
27200;DHT22;14714;48.106;11.546;2023-02-27T08:43:56;0.70;99.90
27200;DHT22;14714;48.106;11.546;2023-02-27T08:46:23;0.70;99.90
27200;DHT22;14714;48.106;11.546;2023-02-27T08:48:50;0.70;99.90
27200;DHT22;14714;48.106;11.546;2023-02-27T08:51:16;0.70;99.90
27200;DHT22;14714;48.106;11.546;2023-02-27T08:53:43;0.70;99.90
27200;DHT22;14714;48.106;11.546;2023-02-27T08:56:10;0.80;99.90
27200;DHT22;14714;48.106;11.546;2023-02-27T08:58:36;0.90;99.90
27200;DHT22;14714;48.106;11.546;2023-02-27T09:01:03;0.80;99.90
27200;DHT22;14714;48.106;11.546;2023-02-27T09:03:30;0.80;99.90
27200;DHT22;14714;48.106;11.546;2023-02-27T09:05:57;0.70;99.90
27200;DHT22;14714;48.106;11.546;2023-02-27T09:08:23;0.80;99.90
27200;DHT22;14714;48.106;11.546;2023-02-27T09:10:50;0.90;99.90
27200;DHT22;14714;48.106;11.546;2023-02-27T09:13:20;1.00;99.90
27200;DHT22;14714;48.106;11.546;2023-02-27T09:15:47;1.10;99.90
27200;DHT22;14714;48.106;11.546;2023-02-27T09:18:14;1.20;99.90
27200;DHT22;14714;48.106;11.546;2023-02-27T09:20:40;1.30;99.90
27200;DHT22;14714;48.106;11.546;2023-02-27T09:23:08;1.30;99.90
27200;DHT22;14714;48.106;11.546;2023-02-27T09:25:35;1.40;99.90
27200;DHT22;14714;48.106;11.546;2023-02-27T09:28:02;1.40;99.90
27200;DHT22;14714;48.106;11.546;2023-02-27T09:30:28;1.40;99.90
27200;DHT22;14714;48.106;11.546;2023-02-27T09:32:55;1.30;99.90
27200;DHT22;14714;48.106;11.546;2023-02-27T09:35:22;1.30;99.90
27200;DHT22;14714;48.106;11.546;2023-02-27T09:37:48;1.30;99.90
27200;DHT22;14714;48.106;11.546;2023-02-27T09:40:58;1.20;99.90
27200;DHT22;14714;48.106;11.546;2023-02-27T09:43:08;1.00;99.90
27200;DHT22;14714;48.106;11.546;2023-02-27T09:45:36;0.90;99.90
27200;DHT22;14714;48.106;11.546;2023-02-27T09:48:06;0.80;99.90
27200;DHT22;14714;48.106;11.546;2023-02-27T09:53:03;0.70;99.90
27200;DHT22;14714;48.106;11.546;2023-02-27T09:55:33;0.70;99.90
27200;DHT22;14714;48.106;11.546;2023-02-27T10:00:55;1.10;99.90
27200;DHT22;14714;48.106;11.546;2023-02-27T10:03:27;1.40;99.90
27200;DHT22;14714;48.106;11.546;2023-02-27T10:09:06;1.80;99.90
27200;DHT22;14714;48.106;11.546;2023-02-27T10:11:30;1.90;99.90
27200;DHT22;14714;48.106;11.546;2023-02-27T10:14:08;2.00;99.90
27200;DHT22;14714;48.106;11.546;2023-02-27T10:16:36;2.00;99.90
27200;DHT22;14714;48.106;11.546;2023-02-27T10:19:04;2.20;99.90
27200;DHT22;14714;48.106;11.546;2023-02-27T10:21:36;2.40;99.90
27200;DHT22;14714;48.106;11.546;2023-02-27T10:24:05;2.50;99.90
27200;DHT22;14714;48.106;11.546;2023-02-27T10:26:38;2.70;99.90
27200;DHT22;14714;48.106;11.546;2023-02-27T10:31:52;2.60;99.90
27200;DHT22;14714;48.106;11.546;2023-02-27T10:34:21;2.60;99.90
27200;DHT22;14714;48.106;11.546;2023-02-27T10:36:48;2.40;99.90
27200;DHT22;14714;48.106;11.546;2023-02-27T10:39:15;2.30;99.90
27200;DHT22;14714;48.106;11.546;2023-02-27T10:41:43;2.20;99.90
27200;DHT22;14714;48.106;11.546;2023-02-27T10:44:13;2.20;99.90
27200;DHT22;14714;48.106;11.546;2023-02-27T10:46:40;2.20;99.90
27200;DHT22;14714;48.106;11.546;2023-02-27T10:49:14;2.30;99.90
27200;DHT22;14714;48.106;11.546;2023-02-27T10:51:44;2.30;99.90
27200;DHT22;14714;48.106;11.546;2023-02-27T10:54:19;2.30;99.90
27200;DHT22;14714;48.106;11.546;2023-02-27T10:56:47;2.30;99.90
27200;DHT22;14714;48.106;11.546;2023-02-27T10:59:29;2.30;99.90
27200;DHT22;14714;48.106;11.546;2023-02-27T11:02:00;2.20;99.90
27200;DHT22;14714;48.106;11.546;2023-02-27T11:06:55;2.10;99.90
27200;DHT22;14714;48.106;11.546;2023-02-27T11:09:26;2.00;99.90
27200;DHT22;14714;48.106;11.546;2023-02-27T11:11:54;1.80;99.90
27200;DHT22;14714;48.106;11.546;2023-02-27T11:14:28;1.70;99.90
27200;DHT22;14714;48.106;11.546;2023-02-27T11:16:56;1.70;99.90
27200;DHT22;14714;48.106;11.546;2023-02-27T11:19:24;1.70;99.90
27200;DHT22;14714;48.106;11.546;2023-02-27T11:24:37;1.80;99.90
27200;DHT22;14714;48.106;11.546;2023-02-27T11:27:17;1.70;99.90
27200;DHT22;14714;48.106;11.546;2023-02-27T11:32:23;1.50;99.90
27200;DHT22;14714;48.106;11.546;2023-02-27T11:34:51;1.40;99.90
27200;DHT22;14714;48.106;11.546;2023-02-27T11:37:52;1.40;99.90
27200;DHT22;14714;48.106;11.546;2023-02-27T11:40:15;1.40;99.90
27200;DHT22;14714;48.106;11.546;2023-02-27T11:42:46;1.40;99.90
27200;DHT22;14714;48.106;11.546;2023-02-27T11:48:08;1.50;99.80
27200;DHT22;14714;48.106;11.546;2023-02-27T11:50:47;1.60;99.10
27200;DHT22;14714;48.106;11.546;2023-02-27T11:55:51;1.60;98.70
27200;DHT22;14714;48.106;11.546;2023-02-27T11:58:19;1.60;97.90
27200;DHT22;14714;48.106;11.546;2023-02-27T12:00:48;1.70;98.00
27200;DHT22;14714;48.106;11.546;2023-02-27T12:05:43;1.60;97.70
27200;DHT22;14714;48.106;11.546;2023-02-27T12:08:18;1.60;98.40
27200;DHT22;14714;48.106;11.546;2023-02-27T12:11:00;1.70;98.90
27200;DHT22;14714;48.106;11.546;2023-02-27T12:13:40;1.70;99.10
27200;DHT22;14714;48.106;11.546;2023-02-27T12:16:19;1.70;99.60
27200;DHT22;14714;48.106;11.546;2023-02-27T12:21:19;1.50;99.80
27200;DHT22;14714;48.106;11.546;2023-02-27T12:23:47;1.50;99.90
27200;DHT22;14714;48.106;11.546;2023-02-27T12:34:00;1.60;99.10
27200;DHT22;14714;48.106;11.546;2023-02-27T12:36:27;1.70;98.70
27200;DHT22;14714;48.106;11.546;2023-02-27T12:38:54;1.60;98.60
27200;DHT22;14714;48.106;11.546;2023-02-27T12:41:32;1.60;98.90
27200;DHT22;14714;48.106;11.546;2023-02-27T12:44:06;1.60;99.40
27200;DHT22;14714;48.106;11.546;2023-02-27T12:49:18;1.80;98.70
27200;DHT22;14714;48.106;11.546;2023-02-27T12:56:45;1.90;97.90
27200;DHT22;14714;48.106;11.546;2023-02-27T13:01:52;1.70;96.90
27200;DHT22;14714;48.106;11.546;2023-02-27T13:04:24;1.60;97.10
27200;DHT22;14714;48.106;11.546;2023-02-27T13:07:04;1.60;97.40
27200;DHT22;14714;48.106;11.546;2023-02-27T13:17:02;1.70;97.80
27200;DHT22;14714;48.106;11.546;2023-02-27T13:19:31;1.60;97.80
27200;DHT22;14714;48.106;11.546;2023-02-27T13:22:03;1.60;97.50
27200;DHT22;14714;48.106;11.546;2023-02-27T13:24:32;1.50;98.20
27200;DHT22;14714;48.106;11.546;2023-02-27T13:29:46;1.60;98.80
27200;DHT22;14714;48.106;11.546;2023-02-27T13:34:50;1.40;99.40
27200;DHT22;14714;48.106;11.546;2023-02-27T13:37:19;1.40;98.50
27200;DHT22;14714;48.106;11.546;2023-02-27T13:42:48;1.40;98.50
27200;DHT22;14714;48.106;11.546;2023-02-27T13:45:01;1.30;98.80
27200;DHT22;14714;48.106;11.546;2023-02-27T13:50:00;1.40;99.40
27200;DHT22;14714;48.106;11.546;2023-02-27T13:52:36;1.40;99.40
27200;DHT22;14714;48.106;11.546;2023-02-27T13:55:23;1.30;99.80
27200;DHT22;14714;48.106;11.546;2023-02-27T13:57:51;1.40;99.90
27200;DHT22;14714;48.106;11.546;2023-02-27T14:00:23;1.40;99.20
27200;DHT22;14714;48.106;11.546;2023-02-27T14:05:36;1.30;99.60
27200;DHT22;14714;48.106;11.546;2023-02-27T14:10:30;1.40;99.90
27200;DHT22;14714;48.106;11.546;2023-02-27T14:12:58;1.40;99.90
27200;DHT22;14714;48.106;11.546;2023-02-27T14:17:52;1.40;99.90
27200;DHT22;14714;48.106;11.546;2023-02-27T14:23:15;1.30;99.90
27200;DHT22;14714;48.106;11.546;2023-02-27T14:25:44;1.30;99.90
27200;DHT22;14714;48.106;11.546;2023-02-27T14:28:14;1.20;99.90
27200;DHT22;14714;48.106;11.546;2023-02-27T14:30:43;1.20;99.90
27200;DHT22;14714;48.106;11.546;2023-02-27T14:33:17;1.10;99.90
27200;DHT22;14714;48.106;11.546;2023-02-27T14:36:04;1.10;99.90
27200;DHT22;14714;48.106;11.546;2023-02-27T14:38:32;1.10;99.90
27200;DHT22;14714;48.106;11.546;2023-02-27T14:41:05;1.00;99.90
27200;DHT22;14714;48.106;11.546;2023-02-27T14:43:38;1.00;99.90
27200;DHT22;14714;48.106;11.546;2023-02-27T14:48:44;0.90;99.90
27200;DHT22;14714;48.106;11.546;2023-02-27T14:51:11;0.90;99.90
27200;DHT22;14714;48.106;11.546;2023-02-27T14:53:38;0.90;99.90
27200;DHT22;14714;48.106;11.546;2023-02-27T14:56:05;0.90;99.90
27200;DHT22;14714;48.106;11.546;2023-02-27T14:58:31;0.90;99.90
27200;DHT22;14714;48.106;11.546;2023-02-27T15:01:07;1.00;99.90
27200;DHT22;14714;48.106;11.546;2023-02-27T15:03:37;1.00;99.90
27200;DHT22;14714;48.106;11.546;2023-02-27T15:06:12;1.00;99.90
27200;DHT22;14714;48.106;11.546;2023-02-27T15:08:40;1.00;99.90
27200;DHT22;14714;48.106;11.546;2023-02-27T15:11:08;0.90;99.90
27200;DHT22;14714;48.106;11.546;2023-02-27T15:13:40;0.90;99.90
27200;DHT22;14714;48.106;11.546;2023-02-27T15:19:11;0.80;99.90
27200;DHT22;14714;48.106;11.546;2023-02-27T15:21:43;0.70;99.90
27200;DHT22;14714;48.106;11.546;2023-02-27T15:24:20;0.60;99.90
27200;DHT22;14714;48.106;11.546;2023-02-27T15:26:50;0.50;99.90
27200;DHT22;14714;48.106;11.546;2023-02-27T15:29:19;0.50;99.90
27200;DHT22;14714;48.106;11.546;2023-02-27T15:31:48;0.50;99.90
27200;DHT22;14714;48.106;11.546;2023-02-27T15:34:15;0.40;99.90
27200;DHT22;14714;48.106;11.546;2023-02-27T15:36:44;0.40;99.90
27200;DHT22;14714;48.106;11.546;2023-02-27T15:39:13;0.30;99.90
27200;DHT22;14714;48.106;11.546;2023-02-27T15:44:44;0.30;99.90
27200;DHT22;14714;48.106;11.546;2023-02-27T15:47:12;0.30;99.90
27200;DHT22;14714;48.106;11.546;2023-02-27T15:49:41;0.30;99.90
27200;DHT22;14714;48.106;11.546;2023-02-27T15:52:16;0.30;99.90
27200;DHT22;14714;48.106;11.546;2023-02-27T15:54:45;0.30;99.90
27200;DHT22;14714;48.106;11.546;2023-02-27T15:57:12;0.30;99.90
27200;DHT22;14714;48.106;11.546;2023-02-27T15:59:40;0.30;99.90
27200;DHT22;14714;48.106;11.546;2023-02-27T16:02:11;0.20;99.90
27200;DHT22;14714;48.106;11.546;2023-02-27T16:04:43;0.20;99.90
27200;DHT22;14714;48.106;11.546;2023-02-27T16:07:13;0.20;99.90
27200;DHT22;14714;48.106;11.546;2023-02-27T16:09:43;0.20;99.90
27200;DHT22;14714;48.106;11.546;2023-02-27T16:12:36;0.20;99.90
27200;DHT22;14714;48.106;11.546;2023-02-27T16:15:38;0.20;99.90
27200;DHT22;14714;48.106;11.546;2023-02-27T16:17:59;0.20;99.90
27200;DHT22;14714;48.106;11.546;2023-02-27T16:22:59;0.10;99.90
27200;DHT22;14714;48.106;11.546;2023-02-27T16:25:26;0.10;99.90
27200;DHT22;14714;48.106;11.546;2023-02-27T16:27:52;0.00;99.90
27200;DHT22;14714;48.106;11.546;2023-02-27T16:30:19;0.00;99.90
27200;DHT22;14714;48.106;11.546;2023-02-27T16:32:47;0.00;99.90
27200;DHT22;14714;48.106;11.546;2023-02-27T16:35:15;0.00;99.90
27200;DHT22;14714;48.106;11.546;2023-02-27T16:37:43;-0.10;99.90
27200;DHT22;14714;48.106;11.546;2023-02-27T16:40:12;-0.20;99.90
27200;DHT22;14714;48.106;11.546;2023-02-27T16:42:39;-0.20;99.90
27200;DHT22;14714;48.106;11.546;2023-02-27T16:45:07;-0.20;99.90
27200;DHT22;14714;48.106;11.546;2023-02-27T16:47:39;-0.30;99.90
27200;DHT22;14714;48.106;11.546;2023-02-27T16:50:48;-0.30;99.90
27200;DHT22;14714;48.106;11.546;2023-02-27T16:52:55;-0.30;99.90
27200;DHT22;14714;48.106;11.546;2023-02-27T16:55:23;-0.40;99.90
27200;DHT22;14714;48.106;11.546;2023-02-27T16:57:50;-0.40;99.90
27200;DHT22;14714;48.106;11.546;2023-02-27T17:00:17;-0.30;99.90
27200;DHT22;14714;48.106;11.546;2023-02-27T17:02:44;-0.40;99.90
27200;DHT22;14714;48.106;11.546;2023-02-27T17:05:12;-0.40;99.90
27200;DHT22;14714;48.106;11.546;2023-02-27T17:07:41;-0.40;99.90
27200;DHT22;14714;48.106;11.546;2023-02-27T17:10:09;-0.40;99.90
27200;DHT22;14714;48.106;11.546;2023-02-27T17:12:36;-0.40;99.90
27200;DHT22;14714;48.106;11.546;2023-02-27T17:15:04;-0.40;99.90
27200;DHT22;14714;48.106;11.546;2023-02-27T17:17:31;-0.50;99.90
27200;DHT22;14714;48.106;11.546;2023-02-27T17:19:58;-0.40;99.90
27200;DHT22;14714;48.106;11.546;2023-02-27T17:22:24;-0.50;99.90
27200;DHT22;14714;48.106;11.546;2023-02-27T17:24:51;-0.50;99.90
27200;DHT22;14714;48.106;11.546;2023-02-27T17:27:17;-0.50;99.90
27200;DHT22;14714;48.106;11.546;2023-02-27T17:29:44;-0.50;99.90
27200;DHT22;14714;48.106;11.546;2023-02-27T17:32:11;-0.50;99.90
27200;DHT22;14714;48.106;11.546;2023-02-27T17:34:37;-0.50;99.90
27200;DHT22;14714;48.106;11.546;2023-02-27T17:37:04;-0.50;99.90
27200;DHT22;14714;48.106;11.546;2023-02-27T17:39:31;-0.50;99.90
27200;DHT22;14714;48.106;11.546;2023-02-27T17:41:58;-0.60;99.90
27200;DHT22;14714;48.106;11.546;2023-02-27T17:44:25;-0.60;99.90
27200;DHT22;14714;48.106;11.546;2023-02-27T17:46:52;-0.60;99.90
27200;DHT22;14714;48.106;11.546;2023-02-27T17:49:19;-0.70;99.90
27200;DHT22;14714;48.106;11.546;2023-02-27T17:51:45;-0.70;99.90
27200;DHT22;14714;48.106;11.546;2023-02-27T17:54:12;-0.70;99.90
27200;DHT22;14714;48.106;11.546;2023-02-27T17:56:39;-0.70;99.90
27200;DHT22;14714;48.106;11.546;2023-02-27T17:59:06;-0.70;99.90
27200;DHT22;14714;48.106;11.546;2023-02-27T18:01:33;-0.70;99.90
27200;DHT22;14714;48.106;11.546;2023-02-27T18:04:01;-0.70;99.90
27200;DHT22;14714;48.106;11.546;2023-02-27T18:06:27;-0.80;99.90
27200;DHT22;14714;48.106;11.546;2023-02-27T18:08:54;-0.80;99.90
27200;DHT22;14714;48.106;11.546;2023-02-27T18:11:21;-0.80;99.90
27200;DHT22;14714;48.106;11.546;2023-02-27T18:13:48;-0.80;99.90
27200;DHT22;14714;48.106;11.546;2023-02-27T18:16:15;-0.80;99.90
27200;DHT22;14714;48.106;11.546;2023-02-27T18:18:43;-0.90;99.90
27200;DHT22;14714;48.106;11.546;2023-02-27T18:21:14;-0.90;99.90
27200;DHT22;14714;48.106;11.546;2023-02-27T18:23:41;-0.90;99.90
27200;DHT22;14714;48.106;11.546;2023-02-27T18:26:10;-0.90;99.90